createdAt,value
2022-10-17T00:01:30.728Z,5.44
2022-10-17T00:04:37.091Z,5.47
2022-10-17T00:07:42.116Z,5.61
2022-10-17T00:10:48.138Z,5.54
2022-10-17T00:13:54.240Z,5.49
2022-10-17T00:17:00.881Z,5.33
2022-10-17T00:20:07.353Z,5.51
2022-10-17T00:23:13.693Z,5.58
2022-10-17T00:26:20.222Z,5.52
2022-10-17T00:29:25.717Z,5.68
2022-10-17T00:32:31.785Z,5.72
2022-10-17T00:35:38.300Z,5.68
2022-10-17T00:38:44.940Z,5.70
2022-10-17T00:41:51.790Z,5.81
2022-10-17T00:45:03.029Z,5.70
2022-10-17T00:48:21.212Z,5.72
2022-10-17T00:51:16.688Z,5.74
2022-10-17T00:54:23.206Z,5.70
2022-10-17T00:57:29.737Z,5.73
2022-10-17T01:00:35.015Z,5.55
2022-10-17T01:03:40.596Z,5.61
2022-10-17T01:06:47.104Z,5.62
2022-10-17T01:09:55.287Z,5.55
2022-10-17T01:13:26.929Z,5.48
2022-10-17T01:16:59.182Z,5.36
2022-10-17T01:20:31.017Z,5.20
2022-10-17T01:24:16.014Z,5.34
2022-10-17T01:27:40.739Z,5.30
2022-10-17T01:31:30.933Z,5.36
2022-10-17T01:34:59.527Z,5.27
2022-10-17T01:38:13.316Z,5.18
2022-10-17T01:41:40.705Z,5.13
2022-10-17T01:45:02.369Z,5.15
2022-10-17T01:48:10.152Z,5.24
2022-10-17T01:51:19.163Z,5.16
2022-10-17T01:54:18.765Z,5.00
2022-10-17T01:57:35.353Z,5.10
2022-10-17T02:00:42.971Z,5.08
2022-10-17T02:03:49.081Z,5.12
2022-10-17T02:06:54.883Z,5.16
2022-10-17T02:10:01.411Z,5.10
2022-10-17T02:13:15.038Z,5.16
2022-10-17T02:16:59.322Z,5.19
2022-10-17T02:20:24.359Z,5.22
2022-10-17T02:23:49.137Z,5.23
2022-10-17T02:27:13.198Z,5.06
2022-10-17T02:30:39.456Z,5.12
2022-10-17T02:33:54.945Z,5.19
2022-10-17T02:37:10.307Z,5.16
2022-10-17T02:40:15.920Z,5.22
2022-10-17T02:43:23.012Z,5.20
2022-10-17T02:46:30.938Z,5.15
2022-10-17T02:49:48.717Z,5.28
2022-10-17T02:53:10.941Z,5.31
2022-10-17T02:56:19.208Z,5.33
2022-10-17T02:59:25.096Z,5.34
2022-10-17T03:02:31.736Z,5.32
2022-10-17T03:05:41.847Z,5.39
2022-10-17T03:08:47.031Z,5.40
2022-10-17T03:11:53.460Z,5.29
2022-10-17T03:14:59.784Z,5.29
2022-10-17T03:18:06.418Z,5.24
2022-10-17T03:21:12.739Z,5.25
2022-10-17T03:24:19.274Z,5.25
2022-10-17T03:27:25.154Z,5.13
2022-10-17T03:30:31.022Z,5.09
2022-10-17T03:33:36.759Z,5.10
2022-10-17T03:36:43.141Z,4.80
2022-10-17T03:39:49.459Z,5.24
2022-10-17T03:42:54.993Z,5.28
2022-10-17T03:46:01.541Z,5.31
2022-10-17T03:49:08.446Z,5.33
2022-10-17T03:52:14.319Z,5.24
2022-10-17T03:55:19.129Z,5.17
2022-10-17T03:58:23.866Z,5.21
2022-10-17T04:01:32.203Z,5.25
2022-10-17T04:04:38.714Z,5.31
2022-10-17T04:07:44.700Z,5.32
2022-10-17T04:10:51.122Z,5.26
2022-10-17T04:13:58.889Z,5.24
2022-10-17T04:17:05.513Z,5.33
2022-10-17T04:20:10.920Z,5.38
2022-10-17T04:23:16.144Z,5.38
2022-10-17T04:26:22.708Z,5.34
2022-10-17T04:29:30.534Z,4.99
2022-10-17T04:32:47.141Z,5.23
2022-10-17T04:35:53.775Z,5.36
2022-10-17T04:39:01.146Z,5.21
2022-10-17T04:42:06.724Z,4.89
2022-10-17T04:45:14.130Z,5.18
2022-10-17T04:48:21.830Z,5.15
2022-10-17T04:51:31.129Z,5.25
2022-10-17T04:54:38.820Z,5.12
2022-10-17T04:57:47.582Z,5.41
2022-10-17T05:00:54.029Z,5.48
2022-10-17T05:04:01.294Z,5.49
2022-10-17T05:07:06.762Z,5.53
2022-10-17T05:10:14.006Z,5.66
2022-10-17T05:13:20.628Z,5.63
2022-10-17T05:16:26.484Z,5.45
2022-10-17T05:19:25.538Z,5.93
2022-10-17T05:22:30.903Z,5.98
2022-10-17T05:25:51.640Z,6.21
2022-10-17T05:29:00.425Z,6.39
2022-10-17T05:32:07.756Z,6.43
2022-10-17T05:35:13.677Z,6.32
2022-10-17T05:38:21.419Z,6.20
2022-10-17T05:41:27.588Z,6.25
2022-10-17T05:44:33.996Z,6.52
2022-10-17T05:47:40.868Z,6.87
2022-10-17T05:50:49.108Z,7.19
2022-10-17T05:53:56.185Z,7.35
2022-10-17T05:57:12.334Z,7.64
2022-10-17T06:00:20.421Z,7.53
2022-10-17T06:03:28.226Z,7.69
2022-10-17T06:06:36.263Z,7.76
2022-10-17T06:09:43.438Z,7.84
2022-10-17T06:12:52.293Z,7.99
2022-10-17T06:15:58.234Z,8.12
2022-10-17T06:19:03.776Z,8.10
2022-10-17T06:22:09.778Z,8.29
2022-10-17T06:25:15.634Z,8.51
2022-10-17T06:28:21.931Z,8.05
2022-10-17T06:31:30.306Z,8.37
2022-10-17T06:34:36.054Z,8.46
2022-10-17T06:37:48.039Z,8.62
2022-10-17T06:40:55.581Z,8.78
2022-10-17T06:44:02.960Z,8.84
2022-10-17T06:47:16.519Z,9.07
2022-10-17T06:50:24.863Z,9.07
2022-10-17T06:53:33.955Z,9.37
2022-10-17T06:56:45.107Z,9.45
2022-10-17T06:59:52.496Z,9.56
2022-10-17T07:03:00.387Z,9.71
2022-10-17T07:06:10.200Z,9.76
2022-10-17T07:09:19.978Z,9.91
2022-10-17T07:12:24.870Z,10.03
2022-10-17T07:15:36.404Z,10.18
2022-10-17T07:18:42.030Z,10.26
2022-10-17T07:21:51.013Z,10.41
2022-10-17T07:24:58.353Z,10.66
2022-10-17T07:28:10.872Z,10.78
2022-10-17T07:31:26.525Z,10.92
2022-10-17T07:34:34.411Z,10.99
2022-10-17T07:37:41.214Z,11.22
2022-10-17T07:40:49.989Z,11.17
2022-10-17T07:43:55.708Z,11.24
2022-10-17T07:47:02.876Z,11.36
2022-10-17T07:50:09.549Z,11.39
2022-10-17T07:53:15.734Z,11.32
2022-10-17T07:56:23.240Z,11.34
2022-10-17T07:59:29.906Z,11.51
2022-10-17T08:02:33.799Z,11.59
2022-10-17T08:05:44.007Z,11.73
2022-10-17T08:08:43.243Z,11.80
2022-10-17T08:11:31.342Z,11.91
2022-10-17T08:14:27.568Z,11.95
2022-10-17T08:17:13.447Z,12.10
2022-10-17T08:20:05.696Z,12.28
2022-10-17T08:23:16.705Z,12.36
2022-10-17T08:26:26.774Z,12.39
2022-10-17T08:29:34.037Z,12.43
2022-10-17T08:32:42.551Z,12.75
2022-10-17T08:35:48.047Z,12.90
2022-10-17T08:38:53.815Z,12.92
2022-10-17T08:42:24.122Z,12.98
2022-10-17T08:45:46.093Z,13.00
2022-10-17T08:48:58.469Z,13.07
2022-10-17T08:52:10.690Z,13.05
2022-10-17T08:58:56.385Z,13.15
2022-10-17T09:02:39.267Z,13.33
2022-10-17T09:06:06.358Z,13.41
2022-10-17T09:09:40.857Z,13.55
2022-10-17T09:13:14.441Z,13.77
2022-10-17T09:16:38.934Z,13.84
2022-10-17T09:20:18.547Z,14.10
2022-10-17T09:23:36.166Z,14.13
2022-10-17T09:26:41.889Z,14.32
2022-10-17T09:29:47.595Z,14.34
2022-10-17T09:32:54.592Z,14.54
2022-10-17T09:36:01.104Z,14.58
2022-10-17T09:39:22.844Z,14.50
2022-10-17T09:42:16.203Z,14.55
2022-10-17T09:45:38.395Z,14.75
2022-10-17T09:48:59.865Z,14.74
2022-10-17T09:52:05.063Z,14.80
2022-10-17T09:55:16.963Z,14.88
2022-10-17T09:58:23.314Z,14.92
2022-10-17T10:01:41.317Z,14.87
2022-10-17T10:05:03.274Z,14.90
2022-10-17T10:07:54.644Z,14.98
2022-10-17T10:10:59.898Z,15.07
2022-10-17T10:14:05.861Z,15.03
2022-10-17T10:17:13.460Z,15.01
2022-10-17T10:20:47.918Z,14.98
2022-10-17T10:23:57.399Z,15.00
2022-10-17T10:27:05.337Z,14.94
2022-10-17T10:30:12.440Z,14.96
2022-10-17T10:33:16.990Z,15.00
2022-10-17T10:36:22.217Z,15.11
2022-10-17T10:39:42.869Z,15.15
2022-10-17T10:42:51.942Z,15.44
2022-10-17T10:45:58.344Z,15.34
2022-10-17T10:49:16.452Z,15.46
2022-10-17T10:52:21.945Z,15.53
2022-10-17T10:55:53.826Z,15.62
2022-10-17T10:59:07.758Z,15.67
2022-10-17T11:02:39.633Z,15.65
2022-10-17T11:06:13.371Z,15.48
2022-10-17T11:09:42.703Z,15.55
2022-10-17T11:13:29.552Z,15.54
2022-10-17T11:16:41.876Z,15.35
2022-10-17T11:19:59.597Z,14.18
2022-10-17T11:23:08.693Z,14.35
2022-10-17T11:26:17.306Z,14.47
2022-10-17T11:29:25.295Z,14.50
2022-10-17T11:32:53.790Z,14.78
2022-10-17T11:35:54.385Z,14.88
2022-10-17T11:38:57.709Z,14.67
2022-10-17T11:42:03.504Z,15.05
2022-10-17T11:44:50.549Z,15.02
2022-10-17T11:47:57.768Z,15.10
2022-10-17T11:54:16.318Z,14.57
2022-10-17T11:57:50.584Z,14.70
2022-10-17T12:01:22.915Z,14.67
2022-10-17T12:04:56.068Z,14.82
2022-10-17T12:08:20.537Z,14.82
2022-10-17T12:12:02.870Z,14.73
2022-10-17T12:15:09.205Z,14.77
2022-10-17T12:18:17.604Z,14.60
2022-10-17T12:21:23.068Z,14.69
2022-10-17T12:24:36.418Z,14.56
2022-10-17T12:27:54.621Z,14.70
2022-10-17T12:31:16.428Z,14.90
2022-10-17T12:34:28.563Z,14.71
2022-10-17T12:38:00.904Z,14.95
2022-10-17T12:41:11.569Z,14.99
2022-10-17T12:44:16.792Z,15.02
2022-10-17T12:47:28.656Z,15.01
2022-10-17T12:51:34.919Z,15.17
2022-10-17T12:54:29.705Z,15.23
2022-10-17T12:57:59.145Z,15.17
2022-10-17T13:01:24.706Z,15.22
2022-10-17T13:04:15.803Z,15.23
2022-10-17T13:07:22.488Z,15.05
2022-10-17T13:10:43.205Z,15.16
2022-10-17T13:14:03.101Z,15.15
2022-10-17T13:17:16.375Z,15.27
2022-10-17T13:20:35.045Z,14.91
2022-10-17T13:23:46.553Z,14.82
2022-10-17T13:26:51.307Z,14.77
2022-10-17T13:29:59.228Z,14.73
2022-10-17T13:33:05.024Z,14.78
2022-10-17T13:36:10.631Z,14.76
2022-10-17T13:39:38.207Z,14.83
2022-10-17T13:42:40.356Z,14.81
2022-10-17T13:45:49.508Z,14.71
2022-10-17T13:48:56.548Z,14.69
2022-10-17T13:52:04.074Z,14.46
2022-10-17T13:55:11.772Z,14.49
2022-10-17T13:58:33.020Z,14.47
2022-10-17T14:01:41.092Z,14.27
2022-10-17T14:05:15.585Z,14.43
2022-10-17T14:08:15.126Z,14.09
2022-10-17T14:11:42.859Z,14.09
2022-10-17T14:15:09.637Z,14.07
2022-10-17T14:17:57.857Z,13.99
2022-10-17T14:24:37.900Z,13.80
2022-10-17T14:27:49.509Z,13.67
2022-10-17T14:31:02.773Z,13.42
2022-10-17T14:34:09.165Z,13.34
2022-10-17T14:37:15.753Z,13.26
2022-10-17T14:40:22.349Z,13.17
2022-10-17T14:43:31.608Z,13.28
2022-10-17T14:46:38.001Z,13.14
2022-10-17T14:49:50.717Z,13.01
2022-10-17T14:52:56.883Z,13.00
2022-10-17T14:56:13.822Z,12.81
2022-10-17T14:59:51.764Z,12.70
2022-10-17T15:02:30.450Z,12.54
2022-10-17T15:05:36.336Z,12.47
2022-10-17T15:11:49.933Z,12.30
2022-10-17T15:14:55.916Z,12.14
2022-10-17T15:18:02.116Z,12.00
2022-10-17T15:21:25.621Z,12.08
2022-10-17T15:24:16.847Z,12.02
2022-10-17T15:27:35.726Z,11.81
2022-10-17T15:30:47.023Z,11.64
2022-10-17T15:33:53.813Z,11.56
2022-10-17T15:37:06.024Z,11.08
2022-10-17T15:40:11.085Z,11.03
2022-10-17T15:43:19.931Z,11.04
2022-10-17T15:46:32.132Z,11.02
2022-10-17T15:49:37.809Z,10.96
2022-10-17T15:52:43.913Z,10.56
2022-10-17T15:55:50.242Z,10.39
2022-10-17T15:58:56.653Z,10.19
2022-10-17T16:02:03.097Z,10.29
2022-10-17T16:05:09.847Z,10.29
2022-10-17T16:08:15.890Z,10.19
2022-10-17T16:11:21.484Z,10.15
2022-10-17T16:14:30.650Z,10.12
2022-10-17T16:17:37.274Z,9.84
2022-10-17T16:20:43.056Z,9.96
2022-10-17T16:23:48.268Z,9.88
2022-10-17T16:26:54.602Z,9.76
2022-10-17T16:30:00.413Z,9.66
2022-10-17T16:33:07.145Z,9.67
2022-10-17T16:36:13.699Z,9.62
2022-10-17T16:39:19.357Z,9.65
2022-10-17T16:42:25.197Z,9.45
2022-10-17T16:45:35.103Z,9.51
2022-10-17T16:51:47.193Z,9.10
2022-10-17T16:54:53.961Z,9.29
2022-10-17T16:57:59.905Z,9.17
2022-10-17T17:01:05.697Z,9.23
2022-10-17T17:04:12.155Z,9.10
2022-10-17T17:07:11.203Z,9.03
2022-10-17T17:10:03.621Z,9.08
2022-10-17T17:13:10.769Z,9.00
2022-10-17T17:16:29.844Z,9.00
2022-10-17T17:19:35.192Z,8.90
2022-10-17T17:22:43.096Z,8.70
2022-10-17T17:25:52.193Z,8.73
2022-10-17T17:28:59.687Z,8.69
2022-10-17T17:32:07.168Z,8.66
2022-10-17T17:35:13.498Z,8.58
2022-10-17T17:38:12.123Z,8.38
2022-10-17T17:41:18.839Z,8.52
2022-10-17T17:44:26.424Z,8.52
2022-10-17T17:47:33.024Z,8.11
2022-10-17T17:50:33.157Z,8.12
2022-10-17T17:53:38.610Z,8.01
2022-10-17T17:56:45.053Z,8.10
2022-10-17T17:59:50.386Z,8.11
2022-10-17T18:02:55.987Z,8.08
2022-10-17T18:06:05.326Z,7.91
2022-10-17T18:09:13.622Z,7.98
2022-10-17T18:12:19.368Z,7.91
2022-10-17T18:15:24.171Z,7.94
2022-10-17T18:18:29.728Z,7.99
2022-10-17T18:21:35.704Z,7.79
2022-10-17T18:24:40.638Z,7.91
2022-10-17T18:27:45.097Z,7.83
2022-10-17T18:30:52.734Z,7.90
2022-10-17T18:33:58.741Z,7.95
2022-10-17T18:37:05.587Z,8.02
2022-10-17T18:40:11.750Z,7.90
2022-10-17T18:43:17.514Z,7.89
2022-10-17T18:46:25.781Z,7.78
2022-10-17T18:49:33.315Z,7.63
2022-10-17T18:52:38.994Z,7.52
2022-10-17T18:58:50.772Z,7.54
2022-10-17T19:01:56.513Z,7.54
2022-10-17T19:05:04.428Z,7.41
2022-10-17T19:08:10.648Z,7.52
2022-10-17T19:11:34.202Z,7.47
2022-10-17T19:14:40.841Z,7.46
2022-10-17T19:17:48.606Z,7.36
2022-10-17T19:20:54.969Z,7.49
2022-10-17T19:24:07.971Z,7.48
2022-10-17T19:27:14.260Z,7.50
2022-10-17T19:30:20.720Z,7.49
2022-10-17T19:36:34.873Z,7.50
2022-10-17T19:39:40.027Z,7.52
2022-10-17T19:42:45.409Z,7.48
2022-10-17T19:45:51.358Z,7.28
2022-10-17T19:48:57.047Z,7.50
2022-10-17T19:52:04.019Z,7.48
2022-10-17T19:55:10.017Z,7.62
2022-10-17T19:58:15.615Z,7.57
2022-10-17T20:01:21.948Z,7.58
2022-10-17T20:04:28.446Z,7.52
2022-10-17T20:07:34.593Z,7.50
2022-10-17T20:10:40.912Z,7.19
2022-10-17T20:13:48.175Z,7.34
2022-10-17T20:16:55.129Z,7.28
2022-10-17T20:20:02.368Z,7.22
2022-10-17T20:23:07.559Z,7.45
2022-10-17T20:29:34.666Z,7.46
2022-10-17T20:32:45.838Z,7.37
2022-10-17T20:35:55.983Z,7.20
2022-10-17T20:39:01.595Z,7.18
2022-10-17T20:42:07.427Z,7.32
2022-10-17T20:45:13.979Z,7.33
2022-10-17T20:48:20.600Z,7.28
2022-10-17T20:51:26.075Z,7.20
2022-10-17T20:54:31.794Z,7.33
2022-10-17T20:57:37.436Z,7.49
2022-10-17T21:00:44.200Z,7.52
2022-10-17T21:03:53.776Z,7.47
2022-10-17T21:06:59.867Z,7.50
2022-10-17T21:10:24.038Z,7.52
2022-10-17T21:13:15.061Z,7.70
2022-10-17T21:16:22.723Z,7.66
2022-10-17T21:19:29.971Z,7.69
2022-10-17T21:22:35.249Z,7.60
2022-10-17T21:25:40.942Z,7.51
2022-10-17T21:28:48.485Z,7.43
2022-10-17T21:31:56.911Z,7.45
2022-10-17T21:35:02.707Z,7.41
2022-10-17T21:38:09.046Z,7.35
2022-10-17T21:41:15.109Z,7.22
2022-10-17T21:44:24.481Z,7.52
2022-10-17T21:47:29.934Z,7.36
2022-10-17T21:50:35.350Z,7.23
2022-10-17T21:53:40.712Z,6.98
2022-10-17T21:56:46.886Z,7.03
2022-10-17T21:59:52.217Z,6.79
2022-10-17T22:02:58.451Z,6.70
2022-10-17T22:06:12.933Z,6.63
2022-10-17T22:09:12.164Z,6.59
2022-10-17T22:12:18.698Z,6.67
2022-10-17T22:15:26.448Z,6.65
2022-10-17T22:18:31.796Z,6.67
2022-10-17T22:21:36.887Z,6.75
2022-10-17T22:24:42.668Z,6.65
2022-10-17T22:27:48.456Z,6.61
2022-10-17T22:30:55.499Z,6.64
2022-10-17T22:34:01.062Z,6.63
2022-10-17T22:37:06.619Z,6.64
2022-10-17T22:40:13.202Z,6.64
2022-10-17T22:43:19.881Z,6.71
2022-10-17T22:46:26.552Z,6.63
2022-10-17T22:49:31.435Z,6.62
2022-10-17T22:52:38.335Z,6.57
2022-10-17T22:55:43.647Z,6.44
2022-10-17T22:58:48.950Z,6.36
2022-10-17T23:01:55.598Z,6.31
2022-10-17T23:05:00.564Z,6.39
2022-10-17T23:08:08.010Z,6.43
2022-10-17T23:11:13.744Z,6.46
2022-10-17T23:14:20.101Z,6.83
2022-10-17T23:17:26.316Z,6.76
2022-10-17T23:20:32.358Z,6.78
2022-10-17T23:23:37.988Z,6.90
2022-10-17T23:26:43.110Z,6.92
2022-10-17T23:29:48.955Z,6.86
2022-10-17T23:32:54.514Z,6.76
2022-10-17T23:36:00.049Z,6.72
2022-10-17T23:39:06.073Z,6.95
2022-10-17T23:42:12.901Z,6.51
2022-10-17T23:45:20.679Z,6.93
2022-10-17T23:48:28.203Z,7.07
2022-10-17T23:51:33.923Z,7.00
2022-10-17T23:57:46.431Z,7.10
